DC09 weather

Medstar Georgetown University Hospital Heliport
Washington, District of Columbia, United States

Public forecast

Using degrees Fahrenheit for public forecast. Weather courtesy of forecast.io.

Closest aviation weather report (METAR) to Medstar Georgetown University Hospital Heliport

Closest report is Ronald Reagan Washington National Airport, 4.0 nm (7.4 km) SSE. Retrieved 2020/06/01 21:52 UTC (45 minutes ago):

KDCA 012152Z 22004KT 10SM FEW080 24/04 A3017 RMK AO2 SLP215 T02390039

Closest aviation forecast (TAF) to Medstar Georgetown University Hospital Heliport

Closest forecast is Ronald Reagan Washington National Airport, 4.0 nm (7.4 km) SSE. Retrieved 2020/06/01 18:28 UTC (4 hours ago):

TAF KDCA 011726Z 0118/0224 28008KT P6SM FEW060 FEW200 FM020000 24004KT P6SM FEW150 FM021500 20007KT P6SM BKN060 FM021800 17007KT P6SM BKN060